Aeroporto :
LOGIN :

Iscrizione | Disclaimer

   EN    FR    IT 

 










Sommario :    VFR   VFR Marginale   IFR   IFR Intensivo   IFR Molto Intensivo
Visibilità : 
Base nubi : 
>= 8 km
>= 3000ft
5 / 8 km
1000 / 3000 ft
1500m / 5 km
500 / 1000 ft
800 / 1500m
200 / 500 ft
< 800m
< 200 ft
Simboli :   Temporali  Nebbia  Neve Forte  Precipitazioni Forti  Vento > 20 kt
SIGMETs :   Varie  Temporali  Ghiacco  Turbolenza  Onda orograficha  Ceneri Vulcaniche






- Altitudine del aeroporto : 242 ft
- Codice IATA : DUB


EIDW - Dublin

ULTIMO METAR :
  • 250400Z 22010KT 180V250 9999 FEW011 OVC015 07/04 Q1015 NOSIG

METARs OBSOLETI :
  • 250330Z 20007KT 160V230 9999 SCT013 OVC016 06/04 Q1015 NOSIG
  • 250300Z 21009KT 180V240 9999 FEW009 BKN012 06/04 Q1016 NOSIG
  • 250230Z 20007KT 170V230 9999 FEW009 SCT011 BKN013 05/04 Q1017 NOSIG
  • 250200Z 20007KT 170V230 9999 FEW007 BKN010 BKN014 05/04 Q1017 NOSIG
  • 250130Z 22009KT 200V260 9999 FEW007 OVC009 05/04 Q1017 NOSIG

TAF TAF EIDW
Valido dal 25 a 00 ore il 26 a 00 ore UTC


242300Z 2500/2524 23006KT 9999 BKN012
TEMPO 2500/2512 BKN008
PROB30 2500/2503 BKN005
PROB40
TEMPO 2500/2509 4000 -DZ
BECMG 2506/2508 20010KT
BECMG 2517/2519 18008KT SCT020 BKN030



MetMap, La meteo Aeronautica in un colpo d'occhio ! - Copyright ORBIFLY Dicembre 2007 - Disclaimer

ORBIFLY MET'MAP TEAM :

Programmazione e sviluppo : Alexandra Zaïnal
Concezione : Baudouin d'Aumeries
Aiuto per la programmazione : Marc-Olivier Méhu
Supporto tecnico e logistico : Manuel Goepfert
Aiuto per la traduzione : Arnaldo La Scala

Contatto : metmap@orbifly.com




FONTI E CREDITI :

   NOAA